createdAt,value
2019-04-07T00:00:19.157Z,7.99
2019-04-07T00:02:52.363Z,7.97
2019-04-07T00:05:26.582Z,7.96
2019-04-07T00:08:00.825Z,7.97
2019-04-07T00:10:34.305Z,7.94
2019-04-07T00:13:07.348Z,7.95
2019-04-07T00:15:41.514Z,7.94
2019-04-07T00:18:13.724Z,7.96
2019-04-07T00:20:47.579Z,7.94
2019-04-07T00:23:21.506Z,7.89
2019-04-07T00:25:54.645Z,7.87
2019-04-07T00:28:26.334Z,7.85
2019-04-07T00:30:59.713Z,7.81
2019-04-07T00:33:32.224Z,7.82
2019-04-07T00:36:04.464Z,7.79
2019-04-07T00:38:36.640Z,7.80
2019-04-07T00:41:08.886Z,7.82
2019-04-07T00:43:40.927Z,7.77
2019-04-07T00:46:12.655Z,7.73
2019-04-07T00:48:44.957Z,7.71
2019-04-07T00:51:18.821Z,7.72
2019-04-07T00:53:51.941Z,7.72
2019-04-07T00:56:23.974Z,7.74
2019-04-07T00:58:57.819Z,7.68
2019-04-07T01:01:30.658Z,7.59
2019-04-07T01:04:03.761Z,7.62
2019-04-07T01:06:38.320Z,7.56
2019-04-07T01:09:11.223Z,7.53
2019-04-07T01:11:44.263Z,7.58
2019-04-07T01:14:18.199Z,7.58
2019-04-07T01:16:51.693Z,7.59
2019-04-07T01:19:27.815Z,7.60
2019-04-07T01:22:02.376Z,7.62
2019-04-07T01:24:36.410Z,7.66
2019-04-07T01:27:13.166Z,7.62
2019-04-07T01:29:47.560Z,7.63
2019-04-07T01:32:22.467Z,7.60
2019-04-07T01:34:54.816Z,7.61
2019-04-07T01:37:29.052Z,7.61
2019-04-07T01:40:01.550Z,7.58
2019-04-07T01:42:47.494Z,7.51
2019-04-07T01:45:45.759Z,7.54
2019-04-07T01:48:37.973Z,7.39
2019-04-07T01:51:32.293Z,7.34
2019-04-07T01:54:37.221Z,7.30
2019-04-07T01:57:30.150Z,7.27
2019-04-07T02:00:33.776Z,7.32
2019-04-07T02:03:26.516Z,7.20
2019-04-07T02:06:18.972Z,7.12
2019-04-07T02:09:02.959Z,7.06
2019-04-07T02:11:45.176Z,7.03
2019-04-07T02:14:23.271Z,7.01
2019-04-07T02:17:03.096Z,7.01
2019-04-07T02:19:51.235Z,7.01
2019-04-07T02:22:45.392Z,7.01
2019-04-07T02:25:40.570Z,6.99
2019-04-07T02:28:37.158Z,6.95
2019-04-07T02:31:38.254Z,6.96
2019-04-07T02:34:44.080Z,6.94
2019-04-07T02:37:24.958Z,6.91
2019-04-07T02:40:24.142Z,6.89
2019-04-07T02:43:22.042Z,6.86
2019-04-07T02:46:05.801Z,6.78
2019-04-07T02:48:59.169Z,6.69
2019-04-07T02:51:50.447Z,6.52
2019-04-07T02:54:34.587Z,6.32
2019-04-07T02:57:27.077Z,6.17
2019-04-07T03:00:18.581Z,6.06
2019-04-07T03:03:18.685Z,5.96
2019-04-07T03:06:26.254Z,5.84
2019-04-07T03:09:05.563Z,5.72
2019-04-07T03:11:47.605Z,5.64
2019-04-07T03:14:34.907Z,5.60
2019-04-07T03:17:16.023Z,5.56
2019-04-07T03:20:05.126Z,5.52
2019-04-07T03:23:07.259Z,5.51
2019-04-07T03:25:58.039Z,5.50
2019-04-07T03:28:46.056Z,5.38
2019-04-07T03:31:51.597Z,5.28
2019-04-07T03:34:58.049Z,5.15
2019-04-07T03:37:49.055Z,5.10
2019-04-07T03:40:32.306Z,5.04
2019-04-07T03:43:15.429Z,5.02
2019-04-07T03:45:55.032Z,4.96
2019-04-07T03:48:31.768Z,4.93
2019-04-07T03:51:15.129Z,4.89
2019-04-07T03:54:07.585Z,4.89
2019-04-07T03:56:58.426Z,4.88
2019-04-07T04:00:10.495Z,4.91
2019-04-07T04:03:15.807Z,4.89
2019-04-07T04:05:57.297Z,4.88
2019-04-07T04:08:50.983Z,4.87
2019-04-07T04:11:41.468Z,4.85
2019-04-07T04:14:29.549Z,4.83
2019-04-07T04:17:04.228Z,4.79
2019-04-07T04:19:36.893Z,4.77
2019-04-07T04:22:11.563Z,4.75
2019-04-07T04:24:44.959Z,4.72
2019-04-07T04:27:17.785Z,4.71
2019-04-07T04:29:51.901Z,4.68
2019-04-07T04:32:25.514Z,4.61
2019-04-07T04:34:59.610Z,4.56
2019-04-07T04:37:40.429Z,4.59
2019-04-07T04:40:07.288Z,4.65
2019-04-07T04:42:39.510Z,4.68
2019-04-07T04:45:13.816Z,4.76
2019-04-07T04:47:46.951Z,4.78
2019-04-07T04:50:21.192Z,4.81
2019-04-07T04:52:54.994Z,4.81
2019-04-07T04:55:27.147Z,4.81
2019-04-07T04:58:02.182Z,4.78
2019-04-07T05:00:34.866Z,4.81
2019-04-07T05:03:07.234Z,4.84
2019-04-07T05:05:39.625Z,4.87
2019-04-07T05:08:13.920Z,4.91
2019-04-07T05:10:46.183Z,4.94
2019-04-07T05:13:21.380Z,4.98
2019-04-07T05:15:55.023Z,5.05
2019-04-07T05:18:27.653Z,5.10
2019-04-07T05:21:01.053Z,5.13
2019-04-07T05:23:34.008Z,5.21
2019-04-07T05:26:08.505Z,5.31
2019-04-07T05:28:41.111Z,5.39
2019-04-07T05:31:14.482Z,5.51
2019-04-07T05:33:48.054Z,5.54
2019-04-07T05:36:22.371Z,5.63
2019-04-07T05:38:57.791Z,5.78
2019-04-07T05:41:32.624Z,5.92
2019-04-07T05:44:06.345Z,6.09
2019-04-07T05:46:42.332Z,6.20
2019-04-07T05:49:15.775Z,6.30
2019-04-07T05:51:47.172Z,6.38
2019-04-07T05:54:22.401Z,6.50
2019-04-07T05:56:58.736Z,6.60
2019-04-07T05:59:30.381Z,6.64
2019-04-07T06:02:04.280Z,6.73
2019-04-07T06:04:37.256Z,6.85
2019-04-07T06:07:13.774Z,6.99
2019-04-07T06:09:50.098Z,6.75
2019-04-07T06:12:21.599Z,7.13
2019-04-07T06:14:55.356Z,7.05
2019-04-07T06:17:27.755Z,7.17
2019-04-07T06:20:01.488Z,7.22
2019-04-07T06:22:35.763Z,7.28
2019-04-07T06:25:11.112Z,7.39
2019-04-07T06:27:46.524Z,7.58
2019-04-07T06:30:19.756Z,7.71
2019-04-07T06:32:53.830Z,7.78
2019-04-07T06:35:26.965Z,7.89
2019-04-07T06:38:05.229Z,7.95
2019-04-07T06:40:38.155Z,7.94
2019-04-07T06:43:10.545Z,7.98
2019-04-07T06:45:55.009Z,8.09
2019-04-07T06:48:27.670Z,8.19
2019-04-07T06:51:20.656Z,8.29
2019-04-07T06:54:03.794Z,8.45
2019-04-07T06:56:56.590Z,8.56
2019-04-07T06:59:52.438Z,8.68
2019-04-07T07:03:01.334Z,8.73
2019-04-07T07:06:00.783Z,8.75
2019-04-07T07:08:57.392Z,8.73
2019-04-07T07:11:58.802Z,8.75
2019-04-07T07:14:55.042Z,8.87
2019-04-07T07:18:02.456Z,8.89
2019-04-07T07:20:47.319Z,8.99
2019-04-07T07:23:29.039Z,9.08
2019-04-07T07:26:03.124Z,9.19
2019-04-07T07:28:36.735Z,9.34
2019-04-07T07:31:10.011Z,9.32
2019-04-07T07:33:44.555Z,9.38
2019-04-07T07:36:18.345Z,9.56
2019-04-07T07:38:58.289Z,9.59
2019-04-07T07:41:25.367Z,9.63
2019-04-07T07:44:03.152Z,9.49
2019-04-07T07:46:34.663Z,9.53
2019-04-07T07:49:07.620Z,9.63
2019-04-07T07:51:46.951Z,9.59
2019-04-07T07:54:18.252Z,9.63
2019-04-07T07:56:57.032Z,9.76
2019-04-07T07:59:33.516Z,9.90
2019-04-07T08:02:03.437Z,9.85
2019-04-07T08:04:35.729Z,9.95
2019-04-07T08:07:11.841Z,10.06
2019-04-07T08:09:43.432Z,10.21
2019-04-07T08:12:16.337Z,10.03
2019-04-07T08:14:55.101Z,9.93
2019-04-07T08:17:27.088Z,9.79
2019-04-07T08:20:01.037Z,9.91
2019-04-07T08:22:41.304Z,10.07
2019-04-07T08:25:09.798Z,10.11
2019-04-07T08:27:48.787Z,10.27
2019-04-07T08:30:27.198Z,10.27
2019-04-07T08:33:00.417Z,10.58
2019-04-07T08:35:35.758Z,10.70
2019-04-07T08:38:08.818Z,10.52
2019-04-07T08:40:41.044Z,10.58
2019-04-07T08:43:14.927Z,10.56
2019-04-07T08:45:48.060Z,10.82
2019-04-07T08:48:21.680Z,10.83
2019-04-07T08:50:57.241Z,10.74
2019-04-07T08:53:29.465Z,10.95
2019-04-07T08:56:03.522Z,11.07
2019-04-07T08:58:38.539Z,11.40
2019-04-07T09:01:09.831Z,11.12
2019-04-07T09:03:45.723Z,10.92
2019-04-07T09:06:20.912Z,10.76
2019-04-07T09:08:57.378Z,11.13
2019-04-07T09:11:30.401Z,11.40
2019-04-07T09:14:05.974Z,11.17
2019-04-07T09:16:41.601Z,11.03
2019-04-07T09:19:39.744Z,11.27
2019-04-07T09:22:25.221Z,11.21
2019-04-07T09:25:20.422Z,11.58
2019-04-07T09:28:05.047Z,12.13
2019-04-07T09:31:04.548Z,12.25
2019-04-07T09:33:56.254Z,12.42
2019-04-07T09:36:55.531Z,12.36
2019-04-07T09:39:57.084Z,12.09
2019-04-07T09:42:38.995Z,12.54
2019-04-07T09:45:38.576Z,12.44
2019-04-07T09:48:27.833Z,12.38
2019-04-07T09:51:21.887Z,12.39
2019-04-07T09:54:13.342Z,12.18
2019-04-07T09:56:58.801Z,12.18
2019-04-07T09:59:46.682Z,12.05
2019-04-07T10:02:44.857Z,12.29
2019-04-07T10:05:40.202Z,12.30
2019-04-07T10:08:32.702Z,12.30
2019-04-07T10:11:27.426Z,12.43
2019-04-07T10:14:27.440Z,12.63
2019-04-07T10:17:23.258Z,12.67
2019-04-07T10:20:21.954Z,12.67
2019-04-07T10:23:05.181Z,12.68
2019-04-07T10:26:01.619Z,12.70
2019-04-07T10:28:54.240Z,13.09
2019-04-07T10:31:47.432Z,13.05
2019-04-07T10:34:46.006Z,13.29
2019-04-07T10:37:51.013Z,13.53
2019-04-07T10:40:45.397Z,13.29
2019-04-07T10:43:37.424Z,13.10
2019-04-07T10:46:28.354Z,13.54
2019-04-07T10:49:09.235Z,13.41
2019-04-07T10:51:55.641Z,13.68
2019-04-07T10:54:58.358Z,13.99
2019-04-07T10:57:55.727Z,13.95
2019-04-07T11:00:48.718Z,13.55
2019-04-07T11:03:37.871Z,13.72
2019-04-07T11:06:38.396Z,13.65
2019-04-07T11:09:31.948Z,14.04
2019-04-07T11:12:27.581Z,13.39
2019-04-07T11:15:27.151Z,14.54
2019-04-07T11:18:12.305Z,14.95
2019-04-07T11:21:12.082Z,15.07
2019-04-07T11:23:56.150Z,15.18
2019-04-07T11:26:42.994Z,15.27
2019-04-07T11:29:32.559Z,15.20
2019-04-07T11:32:22.901Z,15.82
2019-04-07T11:35:21.126Z,16.10
2019-04-07T11:38:21.639Z,15.96
2019-04-07T11:41:21.526Z,15.38
2019-04-07T11:44:20.424Z,15.62
2019-04-07T11:47:17.435Z,15.68
2019-04-07T11:50:05.026Z,15.61
2019-04-07T11:52:47.122Z,15.82
2019-04-07T11:55:37.775Z,15.87
2019-04-07T11:58:36.020Z,16.03
2019-04-07T12:01:30.354Z,15.92
2019-04-07T12:04:27.012Z,16.29
2019-04-07T12:07:12.994Z,16.59
2019-04-07T12:10:18.087Z,16.71
2019-04-07T12:13:19.791Z,16.84
2019-04-07T12:16:02.469Z,17.20
2019-04-07T12:18:49.345Z,17.10
2019-04-07T12:21:45.765Z,17.62
2019-04-07T12:24:43.364Z,17.83
2019-04-07T12:27:55.894Z,17.78
2019-04-07T12:30:51.189Z,18.26
2019-04-07T12:33:50.600Z,17.96
2019-04-07T12:36:35.097Z,17.43
2019-04-07T12:39:24.379Z,17.38
2019-04-07T12:42:15.683Z,17.28
2019-04-07T12:45:07.919Z,17.55
2019-04-07T12:47:47.458Z,17.89
2019-04-07T12:50:49.947Z,18.18
2019-04-07T12:53:42.290Z,17.70
2019-04-07T12:56:34.259Z,17.80
2019-04-07T12:59:19.439Z,17.77
2019-04-07T13:02:25.660Z,17.86
2019-04-07T13:05:17.473Z,17.91
2019-04-07T13:07:58.112Z,18.28
2019-04-07T13:10:44.801Z,18.65
2019-04-07T13:13:47.048Z,18.43
2019-04-07T13:16:49.170Z,18.31
2019-04-07T13:19:32.090Z,18.36
2019-04-07T13:22:13.532Z,18.10
2019-04-07T13:25:07.877Z,17.88
2019-04-07T13:28:06.482Z,18.29
2019-04-07T13:30:56.331Z,18.13
2019-04-07T13:34:01.707Z,18.14
2019-04-07T13:36:54.226Z,18.20
2019-04-07T13:39:56.704Z,18.28
2019-04-07T13:42:47.674Z,17.99
2019-04-07T13:45:26.794Z,17.83
2019-04-07T13:48:17.598Z,17.87
2019-04-07T13:51:04.895Z,18.24
2019-04-07T13:54:13.135Z,18.19
2019-04-07T13:57:17.731Z,18.35
2019-04-07T14:00:13.432Z,18.49
2019-04-07T14:03:19.244Z,18.33
2019-04-07T14:06:02.301Z,18.51
2019-04-07T14:08:49.527Z,18.36
2019-04-07T14:12:05.447Z,18.20
2019-04-07T14:14:55.923Z,18.25
2019-04-07T14:18:06.117Z,18.32
2019-04-07T14:21:03.009Z,18.40
2019-04-07T14:24:10.153Z,18.55
2019-04-07T14:27:12.230Z,18.64
2019-04-07T14:30:06.770Z,18.59
2019-04-07T14:32:57.215Z,18.69
2019-04-07T14:35:48.920Z,18.66
2019-04-07T14:38:36.685Z,18.47
2019-04-07T14:41:20.628Z,18.50
2019-04-07T14:44:35.815Z,18.74
2019-04-07T14:47:19.734Z,18.86
2019-04-07T14:50:33.097Z,18.82
2019-04-07T14:53:26.623Z,18.82
2019-04-07T14:56:18.739Z,18.91
2019-04-07T14:59:23.958Z,18.90
2019-04-07T15:01:59.378Z,18.98
2019-04-07T15:04:38.389Z,19.04
2019-04-07T15:07:32.848Z,18.87
2019-04-07T15:10:16.530Z,18.76
2019-04-07T15:12:53.886Z,18.91
2019-04-07T15:15:31.409Z,18.95
2019-04-07T15:18:03.795Z,18.73
2019-04-07T15:20:43.688Z,18.67
2019-04-07T15:23:21.463Z,18.61
2019-04-07T15:25:57.937Z,18.61
2019-04-07T15:28:33.100Z,18.73
2019-04-07T15:31:08.570Z,18.78
2019-04-07T15:33:40.587Z,18.77
2019-04-07T15:36:18.778Z,18.85
2019-04-07T15:38:49.735Z,18.84
2019-04-07T15:41:25.381Z,18.77
2019-04-07T15:44:00.392Z,18.65
2019-04-07T15:46:36.647Z,18.68
2019-04-07T15:49:10.695Z,18.58
2019-04-07T15:51:43.911Z,18.53
2019-04-07T15:54:20.202Z,18.56
2019-04-07T15:56:50.507Z,18.59
2019-04-07T15:59:22.932Z,18.55
2019-04-07T16:01:57.327Z,18.53
2019-04-07T16:04:29.823Z,18.55
2019-04-07T16:07:04.862Z,18.56
2019-04-07T16:09:49.211Z,18.51
2019-04-07T16:12:15.342Z,18.58
2019-04-07T16:14:48.048Z,18.53
2019-04-07T16:17:21.113Z,18.54
2019-04-07T16:19:54.405Z,18.53
2019-04-07T16:22:30.945Z,18.50
2019-04-07T16:25:10.077Z,18.34
2019-04-07T16:27:42.415Z,18.25
2019-04-07T16:30:19.149Z,18.20
2019-04-07T16:32:50.418Z,18.07
2019-04-07T16:35:22.913Z,18.01
2019-04-07T16:37:58.318Z,17.99
2019-04-07T16:40:29.961Z,17.97
2019-04-07T16:43:10.955Z,17.92
2019-04-07T16:45:37.729Z,17.89
2019-04-07T16:48:11.072Z,17.86
2019-04-07T16:50:53.296Z,17.74
2019-04-07T16:53:30.953Z,17.69
2019-04-07T16:56:05.309Z,17.67
2019-04-07T16:58:39.929Z,17.60
2019-04-07T17:01:11.915Z,17.50
2019-04-07T17:03:44.255Z,17.34
2019-04-07T17:06:17.824Z,17.33
2019-04-07T17:08:51.202Z,17.17
2019-04-07T17:11:24.961Z,17.11
2019-04-07T17:14:04.306Z,17.04
2019-04-07T17:16:44.169Z,17.02
2019-04-07T17:19:17.085Z,16.89
2019-04-07T17:21:50.153Z,16.78
2019-04-07T17:24:27.778Z,16.68
2019-04-07T17:26:56.274Z,16.52
2019-04-07T17:29:32.255Z,16.49
2019-04-07T17:32:06.112Z,16.48
2019-04-07T17:34:42.089Z,16.33
2019-04-07T17:37:15.168Z,16.23
2019-04-07T17:40:17.504Z,16.20
2019-04-07T17:42:52.765Z,16.07
2019-04-07T17:45:54.316Z,16.07
2019-04-07T17:48:52.066Z,16.05
2019-04-07T17:51:51.065Z,15.95
2019-04-07T17:54:42.956Z,15.83
2019-04-07T17:57:23.797Z,15.75
2019-04-07T18:00:18.625Z,15.65
2019-04-07T18:03:18.392Z,15.51
2019-04-07T18:06:15.663Z,15.41
2019-04-07T18:09:11.721Z,15.34
2019-04-07T18:12:04.278Z,15.34
2019-04-07T18:14:56.967Z,15.24
2019-04-07T18:17:47.673Z,15.21
2019-04-07T18:20:40.542Z,15.11
2019-04-07T18:23:38.166Z,15.08
2019-04-07T18:26:18.791Z,14.92
2019-04-07T18:29:12.033Z,14.83
2019-04-07T18:31:57.467Z,14.74
2019-04-07T18:34:46.231Z,14.73
2019-04-07T18:37:48.862Z,14.65
2019-04-07T18:40:31.758Z,14.52
2019-04-07T18:43:22.688Z,14.36
2019-04-07T18:46:11.860Z,14.38
2019-04-07T18:49:06.207Z,14.44
2019-04-07T18:51:53.795Z,14.41
2019-04-07T18:54:48.646Z,14.49
2019-04-07T18:57:40.078Z,14.55
2019-04-07T19:00:24.596Z,14.54
2019-04-07T19:03:09.353Z,14.69
2019-04-07T19:05:56.513Z,14.69
2019-04-07T19:08:47.081Z,14.82
2019-04-07T19:12:05.117Z,14.83
2019-04-07T19:14:48.883Z,14.77
2019-04-07T19:17:38.509Z,14.79
2019-04-07T19:20:31.787Z,14.75
2019-04-07T19:23:34.759Z,14.76
2019-04-07T19:26:26.717Z,14.74
2019-04-07T19:29:42.588Z,14.75
2019-04-07T19:32:47.165Z,14.66
2019-04-07T19:35:40.813Z,14.55
2019-04-07T19:38:44.065Z,14.53
2019-04-07T19:41:24.773Z,14.46
2019-04-07T19:44:17.968Z,14.35
2019-04-07T19:47:06.577Z,14.16
2019-04-07T19:49:49.947Z,14.16
2019-04-07T19:52:36.908Z,14.18
2019-04-07T19:55:26.690Z,14.27
2019-04-07T19:58:23.582Z,14.21
2019-04-07T20:01:31.336Z,14.22
2019-04-07T20:04:22.807Z,14.15
2019-04-07T20:07:10.646Z,14.12
2019-04-07T20:10:01.224Z,14.04
2019-04-07T20:13:00.480Z,14.05
2019-04-07T20:15:47.259Z,14.04
2019-04-07T20:18:30.077Z,14.08
2019-04-07T20:21:19.895Z,14.03
2019-04-07T20:24:10.425Z,13.95
2019-04-07T20:27:09.089Z,13.96
2019-04-07T20:29:56.252Z,14.04
2019-04-07T20:32:36.083Z,13.95
2019-04-07T20:35:33.875Z,14.15
2019-04-07T20:38:33.667Z,14.11
2019-04-07T20:41:26.255Z,14.05
2019-04-07T20:44:30.776Z,13.94
2019-04-07T20:47:13.368Z,13.83
2019-04-07T20:50:21.734Z,13.68
2019-04-07T20:53:21.823Z,13.59
2019-04-07T20:56:25.023Z,13.56
2019-04-07T20:59:15.826Z,13.68
2019-04-07T21:02:27.418Z,13.67
2019-04-07T21:05:29.138Z,13.60
2019-04-07T21:08:30.185Z,13.49
2019-04-07T21:11:11.145Z,13.50
2019-04-07T21:14:03.074Z,13.40
2019-04-07T21:17:09.260Z,13.30
2019-04-07T21:20:02.051Z,13.25
2019-04-07T21:22:47.716Z,13.13
2019-04-07T21:25:39.255Z,12.95
2019-04-07T21:28:40.666Z,12.82
2019-04-07T21:31:28.124Z,12.78
2019-04-07T21:34:29.581Z,12.92
2019-04-07T21:37:13.154Z,12.79
2019-04-07T21:39:59.996Z,12.62
2019-04-07T21:42:40.209Z,12.19
2019-04-07T21:45:35.335Z,11.96
2019-04-07T21:48:15.778Z,11.71
2019-04-07T21:51:15.535Z,11.51
2019-04-07T21:53:55.187Z,11.28
2019-04-07T21:56:56.041Z,11.24
2019-04-07T21:59:56.233Z,11.24
2019-04-07T22:03:04.007Z,11.23
2019-04-07T22:06:06.824Z,11.19
2019-04-07T22:09:04.863Z,11.09
2019-04-07T22:11:38.484Z,10.93
2019-04-07T22:14:12.407Z,10.83
2019-04-07T22:16:47.116Z,10.75
2019-04-07T22:19:20.521Z,10.68
2019-04-07T22:21:56.543Z,10.61
2019-04-07T22:24:33.283Z,10.58
2019-04-07T22:27:07.327Z,10.52
2019-04-07T22:29:40.480Z,10.46
2019-04-07T22:32:14.874Z,10.38
2019-04-07T22:34:48.220Z,10.29
2019-04-07T22:37:23.426Z,10.22
2019-04-07T22:39:57.195Z,10.15
2019-04-07T22:42:30.955Z,10.06
2019-04-07T22:45:04.955Z,10.00
2019-04-07T22:47:38.652Z,9.95
2019-04-07T22:50:12.895Z,9.89
2019-04-07T22:52:47.442Z,9.85
2019-04-07T22:55:18.764Z,9.79
2019-04-07T22:57:50.268Z,9.73
2019-04-07T23:00:26.929Z,9.57
2019-04-07T23:02:59.596Z,9.57
2019-04-07T23:05:31.872Z,9.53
2019-04-07T23:08:05.666Z,9.48
2019-04-07T23:10:40.703Z,9.41
2019-04-07T23:13:13.596Z,9.32
2019-04-07T23:15:48.515Z,9.28
2019-04-07T23:18:21.000Z,9.21
2019-04-07T23:20:53.723Z,9.14
2019-04-07T23:23:28.409Z,9.12
2019-04-07T23:26:05.479Z,9.07
2019-04-07T23:28:39.070Z,9.02
2019-04-07T23:31:11.759Z,9.00
2019-04-07T23:33:44.749Z,8.99
2019-04-07T23:36:18.000Z,8.96
2019-04-07T23:38:50.061Z,8.94
2019-04-07T23:41:23.729Z,8.91
2019-04-07T23:43:56.835Z,8.86
2019-04-07T23:46:29.851Z,8.81
2019-04-07T23:49:03.633Z,8.77
2019-04-07T23:51:35.698Z,8.72
2019-04-07T23:54:09.130Z,8.66
2019-04-07T23:56:43.903Z,8.59
2019-04-07T23:59:18.712Z,8.52
